createdAt,value
2019-05-02T00:01:52.397Z,10.17
2019-05-02T00:04:27.623Z,12.13
2019-05-02T00:07:05.480Z,11.90
2019-05-02T00:09:47.225Z,12.53
2019-05-02T00:12:18.415Z,12.10
2019-05-02T00:14:56.532Z,12.77
2019-05-02T00:17:31.720Z,11.50
2019-05-02T00:20:08.857Z,11.83
2019-05-02T00:22:47.992Z,13.17
2019-05-02T00:25:20.924Z,12.23
2019-05-02T00:27:56.230Z,12.93
2019-05-02T00:30:34.653Z,11.17
2019-05-02T00:33:10.432Z,13.37
2019-05-02T00:35:46.710Z,11.30
2019-05-02T00:38:22.464Z,11.07
2019-05-02T00:41:02.332Z,11.97
2019-05-02T00:43:36.369Z,12.73
2019-05-02T00:46:11.865Z,12.67
2019-05-02T00:48:59.786Z,11.53
2019-05-02T00:51:32.593Z,11.73
2019-05-02T00:54:08.083Z,11.87
2019-05-02T00:56:44.095Z,13.07
2019-05-02T00:59:20.565Z,12.37
2019-05-02T01:02:07.262Z,13.23
2019-05-02T01:04:43.840Z,12.43
2019-05-02T01:07:20.484Z,12.00
2019-05-02T01:09:56.089Z,14.73
2019-05-02T01:12:31.529Z,13.07
2019-05-02T01:15:08.403Z,12.53
2019-05-02T01:17:43.789Z,13.57
2019-05-02T01:20:22.301Z,13.10
2019-05-02T01:22:55.962Z,12.67
2019-05-02T01:25:31.214Z,12.73
2019-05-02T01:28:31.423Z,13.40
2019-05-02T01:31:26.054Z,13.97
2019-05-02T01:34:23.332Z,13.73
2019-05-02T01:37:07.081Z,12.40
2019-05-02T01:39:43.963Z,13.10
2019-05-02T01:42:19.376Z,13.30
2019-05-02T01:44:54.544Z,13.93
2019-05-02T01:47:34.250Z,14.67
2019-05-02T01:50:06.732Z,12.10
2019-05-02T01:52:41.889Z,13.93
2019-05-02T01:55:20.939Z,12.63
2019-05-02T01:57:53.881Z,13.50
2019-05-02T02:00:29.127Z,12.57
2019-05-02T02:03:08.831Z,13.30
2019-05-02T02:05:41.512Z,12.70
2019-05-02T02:08:16.660Z,11.87
2019-05-02T02:10:56.603Z,12.53
2019-05-02T02:13:35.936Z,12.87
2019-05-02T02:16:06.071Z,11.63
2019-05-02T02:18:47.106Z,12.23
2019-05-02T02:21:33.190Z,14.13
2019-05-02T02:24:12.424Z,12.40
2019-05-02T02:26:48.239Z,13.33
2019-05-02T02:29:24.548Z,11.97
2019-05-02T02:31:59.711Z,11.67
2019-05-02T02:34:34.935Z,13.47
2019-05-02T02:37:12.500Z,13.00
2019-05-02T02:39:48.700Z,14.00
2019-05-02T02:42:25.129Z,11.37
2019-05-02T02:45:12.991Z,13.10
2019-05-02T02:47:44.987Z,13.97
2019-05-02T02:50:21.668Z,13.23
2019-05-02T02:52:56.825Z,13.00
2019-05-02T02:55:31.978Z,13.93
2019-05-02T02:58:07.752Z,13.67
2019-05-02T03:00:47.569Z,13.73
2019-05-02T03:03:20.797Z,13.07
2019-05-02T03:05:58.613Z,14.57
2019-05-02T03:08:44.562Z,14.30
2019-05-02T03:11:22.720Z,13.47
2019-05-02T03:14:06.177Z,13.00
2019-05-02T03:16:46.130Z,14.43
2019-05-02T03:19:14.779Z,14.33
2019-05-02T03:22:01.169Z,14.20
2019-05-02T03:24:36.551Z,14.47
2019-05-02T03:27:10.294Z,14.10
2019-05-02T03:29:45.553Z,13.93
2019-05-02T03:32:31.466Z,14.17
2019-05-02T03:34:57.621Z,14.20
2019-05-02T03:37:33.317Z,15.03
2019-05-02T03:40:32.153Z,14.77
2019-05-02T03:43:05.656Z,13.67
2019-05-02T03:45:43.145Z,13.93
2019-05-02T03:48:24.944Z,12.73
2019-05-02T03:50:54.903Z,14.63
2019-05-02T03:53:30.129Z,13.90
2019-05-02T03:56:11.267Z,13.37
2019-05-02T03:58:48.494Z,13.40
2019-05-02T04:01:19.305Z,12.63
2019-05-02T04:03:54.964Z,13.50
2019-05-02T04:06:32.330Z,12.67
2019-05-02T04:09:09.057Z,14.07
2019-05-02T04:11:44.556Z,13.63
2019-05-02T04:14:36.824Z,13.63
2019-05-02T04:16:58.151Z,12.80
2019-05-02T04:19:34.850Z,10.90
2019-05-02T04:22:12.168Z,13.50
2019-05-02T04:24:54.540Z,12.40
2019-05-02T04:27:27.693Z,13.03
2019-05-02T04:30:10.260Z,12.93
2019-05-02T04:32:42.965Z,11.33
2019-05-02T04:35:16.381Z,12.40
2019-05-02T04:37:51.648Z,12.23
2019-05-02T04:40:28.326Z,13.17
2019-05-02T04:43:10.224Z,13.13
2019-05-02T04:45:53.070Z,15.40
2019-05-02T04:48:18.506Z,13.47
2019-05-02T04:50:59.723Z,14.53
2019-05-02T04:53:36.793Z,13.00
2019-05-02T04:56:10.590Z,14.10
2019-05-02T04:58:44.685Z,12.70
2019-05-02T05:01:21.350Z,13.37
2019-05-02T05:04:02.638Z,13.63
2019-05-02T05:06:34.062Z,15.30
2019-05-02T05:09:13.366Z,13.37
2019-05-02T05:11:48.093Z,14.70
2019-05-02T05:14:23.020Z,14.60
2019-05-02T05:16:58.183Z,16.03
2019-05-02T05:19:33.428Z,14.17
2019-05-02T05:22:11.665Z,15.30
2019-05-02T05:24:58.519Z,16.27
2019-05-02T05:27:33.778Z,13.83
2019-05-02T05:30:15.409Z,13.63
2019-05-02T05:32:47.896Z,13.97
2019-05-02T05:35:23.585Z,13.63
2019-05-02T05:37:58.832Z,13.90
2019-05-02T05:40:34.078Z,13.73
2019-05-02T05:43:14.417Z,14.07
2019-05-02T05:45:53.305Z,13.23
2019-05-02T05:48:23.496Z,14.43
2019-05-02T05:50:58.742Z,13.60
2019-05-02T05:53:34.430Z,15.53
2019-05-02T05:56:09.658Z,13.50
2019-05-02T05:58:48.146Z,14.50
2019-05-02T06:01:25.885Z,13.93
2019-05-02T06:04:22.118Z,13.87
2019-05-02T06:06:59.530Z,14.53
2019-05-02T06:09:32.497Z,13.47
2019-05-02T06:12:07.744Z,13.43
2019-05-02T06:14:46.248Z,13.40
2019-05-02T06:17:23.151Z,12.90
2019-05-02T06:20:16.416Z,13.23
2019-05-02T06:22:54.939Z,12.80
2019-05-02T06:25:34.276Z,14.30
2019-05-02T06:28:06.740Z,13.20
2019-05-02T06:30:42.490Z,13.80
2019-05-02T06:33:17.809Z,13.67
2019-05-02T06:36:00.992Z,14.57
2019-05-02T06:38:29.861Z,13.90
2019-05-02T06:41:05.115Z,12.93
2019-05-02T06:43:41.265Z,12.97
2019-05-02T06:46:21.958Z,13.23
2019-05-02T06:48:54.021Z,14.43
2019-05-02T06:51:29.186Z,13.37
2019-05-02T06:54:04.653Z,12.83
2019-05-02T06:56:43.038Z,13.20
2019-05-02T06:59:18.430Z,13.13
2019-05-02T07:01:57.360Z,12.57
2019-05-02T07:04:31.434Z,13.50
2019-05-02T07:07:06.686Z,13.20
2019-05-02T07:09:42.217Z,13.20
2019-05-02T07:12:17.596Z,12.77
2019-05-02T07:14:55.994Z,12.83
2019-05-02T07:17:41.846Z,12.97
2019-05-02T07:20:17.202Z,13.53
2019-05-02T07:22:52.358Z,12.63
2019-05-02T07:25:27.589Z,12.63
2019-05-02T07:28:09.517Z,13.00
2019-05-02T07:30:43.646Z,12.93
2019-05-02T07:33:18.794Z,13.00
2019-05-02T07:35:55.211Z,12.00
2019-05-02T07:38:30.954Z,12.50
2019-05-02T07:41:06.209Z,11.03
2019-05-02T07:43:51.962Z,12.20
2019-05-02T07:46:24.603Z,10.90
2019-05-02T07:49:00.190Z,11.90
2019-05-02T07:51:35.662Z,12.43
2019-05-02T07:54:10.895Z,11.97
2019-05-02T07:56:48.691Z,12.03
2019-05-02T07:59:23.857Z,11.93
2019-05-02T08:02:00.755Z,11.80
2019-05-02T08:04:36.380Z,14.37
2019-05-02T08:07:11.622Z,10.57
2019-05-02T08:09:46.830Z,10.87
2019-05-02T08:12:22.177Z,10.93
2019-05-02T08:15:00.277Z,10.13
2019-05-02T08:17:34.337Z,9.23
2019-05-02T08:20:13.562Z,9.23
2019-05-02T08:22:48.883Z,10.20
2019-05-02T08:25:23.744Z,10.80
2019-05-02T08:28:15.830Z,9.43
2019-05-02T08:30:53.522Z,11.37
2019-05-02T08:33:29.162Z,10.10
2019-05-02T08:36:05.777Z,9.27
2019-05-02T08:38:41.081Z,9.97
2019-05-02T08:41:20.052Z,9.10
2019-05-02T08:43:53.144Z,9.30
2019-05-02T08:46:28.294Z,9.13
2019-05-02T08:49:03.472Z,10.13
2019-05-02T08:51:41.513Z,9.37
2019-05-02T08:54:15.741Z,9.03
2019-05-02T08:56:53.262Z,8.23
2019-05-02T08:59:28.000Z,7.87
2019-05-02T09:02:03.162Z,8.65
2019-05-02T09:04:38.495Z,8.53
2019-05-02T09:07:13.850Z,10.17
2019-05-02T09:09:49.438Z,7.60
2019-05-02T09:12:24.650Z,7.97
2019-05-02T09:14:59.872Z,9.93
2019-05-02T09:17:38.659Z,9.28
2019-05-02T09:20:18.749Z,9.07
2019-05-02T09:22:52.092Z,8.60
2019-05-02T09:25:26.144Z,8.07
2019-05-02T09:28:01.888Z,7.63
2019-05-02T09:30:37.137Z,8.80
2019-05-02T09:33:12.421Z,8.50
2019-05-02T09:35:47.783Z,9.17
2019-05-02T09:38:23.009Z,8.48
2019-05-02T09:40:58.260Z,8.83
2019-05-02T09:43:37.457Z,9.53
2019-05-02T09:46:12.815Z,9.03
2019-05-02T09:48:47.161Z,9.87
2019-05-02T09:51:23.074Z,9.58
2019-05-02T09:54:02.691Z,9.23
2019-05-02T09:56:35.172Z,8.93
2019-05-02T09:59:24.459Z,8.18
2019-05-02T10:01:47.402Z,8.93
2019-05-02T10:04:22.694Z,10.23
2019-05-02T10:06:57.984Z,7.80
2019-05-02T10:09:33.209Z,7.65
2019-05-02T10:12:08.437Z,8.45
2019-05-02T10:14:43.881Z,9.18
2019-05-02T10:17:19.298Z,10.78
2019-05-02T10:19:57.154Z,8.45
2019-05-02T10:22:39.098Z,9.75
2019-05-02T10:25:08.720Z,9.13
2019-05-02T10:27:47.489Z,9.23
2019-05-02T10:30:23.015Z,8.68
2019-05-02T10:32:58.325Z,8.28
2019-05-02T10:35:40.586Z,8.58
2019-05-02T10:38:19.270Z,8.65
2019-05-02T10:40:54.610Z,8.45
2019-05-02T10:43:29.673Z,8.90
2019-05-02T10:46:12.575Z,8.20
2019-05-02T10:48:57.024Z,8.13
2019-05-02T10:51:35.490Z,9.53
2019-05-02T10:54:12.002Z,9.63
2019-05-02T10:56:47.298Z,8.55
2019-05-02T10:59:22.537Z,9.75
2019-05-02T11:02:12.866Z,9.38
2019-05-02T11:04:52.435Z,8.90
2019-05-02T11:07:28.088Z,8.88
2019-05-02T11:10:06.837Z,9.00
2019-05-02T11:12:48.273Z,9.68
2019-05-02T11:15:45.567Z,9.18
2019-05-02T11:18:39.376Z,10.48
2019-05-02T11:21:04.456Z,9.00
2019-05-02T11:23:38.538Z,9.08
2019-05-02T11:26:15.596Z,8.20
2019-05-02T11:28:52.159Z,8.43
2019-05-02T11:31:27.700Z,7.95
2019-05-02T11:34:02.904Z,8.63
2019-05-02T11:36:38.080Z,8.75
2019-05-02T11:39:20.660Z,8.25
2019-05-02T11:41:52.558Z,8.98
2019-05-02T11:44:27.752Z,9.88
2019-05-02T11:47:02.986Z,9.35
2019-05-02T11:49:38.161Z,9.53
2019-05-02T11:52:13.402Z,9.73
2019-05-02T11:54:48.864Z,9.58
2019-05-02T11:57:28.651Z,8.40
2019-05-02T12:00:05.035Z,8.53
2019-05-02T12:03:02.047Z,9.65
2019-05-02T12:05:42.631Z,9.78
2019-05-02T12:08:17.858Z,9.88
2019-05-02T12:10:53.123Z,9.15
2019-05-02T12:13:28.894Z,9.88
2019-05-02T12:16:08.446Z,9.20
2019-05-02T12:18:43.934Z,9.70
2019-05-02T12:21:19.532Z,9.25
2019-05-02T12:23:54.763Z,8.38
2019-05-02T12:26:29.978Z,10.55
2019-05-02T12:29:05.484Z,8.53
2019-05-02T12:31:42.541Z,10.85
2019-05-02T12:34:17.731Z,10.55
2019-05-02T12:36:53.555Z,8.70
2019-05-02T12:39:28.874Z,9.48
2019-05-02T12:42:04.407Z,8.13
2019-05-02T12:44:39.985Z,7.60
2019-05-02T12:47:15.200Z,6.47
2019-05-02T12:49:51.885Z,6.08
2019-05-02T12:52:27.360Z,5.95
2019-05-02T12:55:03.021Z,5.97
2019-05-02T12:57:38.227Z,5.47
2019-05-02T13:00:14.219Z,5.30
2019-05-02T13:03:11.722Z,4.72
2019-05-02T13:05:47.034Z,5.95
2019-05-02T13:08:22.791Z,5.67
2019-05-02T13:11:07.632Z,5.45
2019-05-02T13:13:43.609Z,6.35
2019-05-02T13:16:18.977Z,7.42
2019-05-02T13:18:57.282Z,4.87
2019-05-02T13:21:42.173Z,5.42
2019-05-02T13:24:24.601Z,4.80
2019-05-02T13:27:00.887Z,4.58
2019-05-02T13:29:36.388Z,5.17
2019-05-02T13:32:21.749Z,4.58
2019-05-02T13:35:19.781Z,6.22
2019-05-02T13:37:57.255Z,4.58
2019-05-02T13:40:41.660Z,4.17
2019-05-02T13:43:17.218Z,4.30
2019-05-02T13:46:15.749Z,4.72
2019-05-02T13:48:52.531Z,4.10
2019-05-02T13:51:28.737Z,4.60
2019-05-02T13:54:03.993Z,4.80
2019-05-02T13:56:48.580Z,4.95
2019-05-02T13:59:24.254Z,4.70
2019-05-02T14:02:02.744Z,4.85
2019-05-02T14:04:38.148Z,4.78
2019-05-02T14:07:17.505Z,4.80
2019-05-02T14:09:58.531Z,4.10
2019-05-02T14:12:53.105Z,4.03
2019-05-02T14:15:36.669Z,5.12
2019-05-02T14:18:12.432Z,5.72
2019-05-02T14:20:48.229Z,5.22
2019-05-02T14:23:23.363Z,4.80
2019-05-02T14:25:58.619Z,5.45
2019-05-02T14:28:36.265Z,4.35
2019-05-02T14:31:11.876Z,3.70
2019-05-02T14:34:06.049Z,4.15
2019-05-02T14:36:42.334Z,4.95
2019-05-02T14:39:17.641Z,4.53
2019-05-02T14:41:52.964Z,3.85
2019-05-02T14:44:56.687Z,5.47
2019-05-02T14:47:05.406Z,5.53
2019-05-02T14:49:42.813Z,4.47
2019-05-02T14:52:18.033Z,3.85
2019-05-02T14:54:55.611Z,3.92
2019-05-02T14:57:30.174Z,4.15
2019-05-02T15:00:07.250Z,5.45
2019-05-02T15:02:45.036Z,3.95
2019-05-02T15:05:27.879Z,5.95
2019-05-02T15:08:02.540Z,3.65
2019-05-02T15:10:48.910Z,4.47
2019-05-02T15:13:12.603Z,5.42
2019-05-02T15:15:47.794Z,4.62
2019-05-02T15:18:23.322Z,5.37
2019-05-02T15:20:58.533Z,4.35
2019-05-02T15:23:34.046Z,5.15
2019-05-02T15:26:12.258Z,4.55
2019-05-02T15:28:46.944Z,4.12
2019-05-02T15:31:33.783Z,3.55
2019-05-02T15:34:14.203Z,3.87
2019-05-02T15:36:49.454Z,3.47
2019-05-02T15:42:01.789Z,3.37
2019-05-02T15:44:37.113Z,3.47
2019-05-02T15:47:12.455Z,3.77
2019-05-02T15:49:50.172Z,3.37
2019-05-02T15:52:28.964Z,3.70
2019-05-02T15:55:04.713Z,3.42
2019-05-02T15:57:43.615Z,3.65
2019-05-02T16:00:25.595Z,4.80
2019-05-02T16:03:01.578Z,4.87
2019-05-02T16:05:36.587Z,4.10
2019-05-02T16:08:13.037Z,3.98
2019-05-02T16:10:48.231Z,3.85
2019-05-02T16:13:23.472Z,3.90
2019-05-02T16:16:02.201Z,5.72
2019-05-02T16:18:36.090Z,5.10
2019-05-02T16:21:26.335Z,4.55
2019-05-02T16:24:14.792Z,4.28
2019-05-02T16:26:52.759Z,3.98
2019-05-02T16:29:33.928Z,4.55
2019-05-02T16:32:23.597Z,3.98
2019-05-02T16:35:15.595Z,5.75
2019-05-02T16:37:46.853Z,4.25
2019-05-02T16:40:29.617Z,3.95
2019-05-02T16:42:59.808Z,4.20
2019-05-02T16:45:34.945Z,4.03
2019-05-02T16:48:11.873Z,4.28
2019-05-02T16:50:46.936Z,4.12
2019-05-02T16:53:26.059Z,5.70
2019-05-02T16:56:05.504Z,4.03
2019-05-02T16:58:38.100Z,3.87
2019-05-02T17:01:19.630Z,5.20
2019-05-02T17:03:50.521Z,4.37
2019-05-02T17:06:27.313Z,4.57
2019-05-02T17:09:22.319Z,4.72
2019-05-02T17:11:58.294Z,4.27
2019-05-02T17:14:33.951Z,4.37
2019-05-02T17:17:12.174Z,4.27
2019-05-02T17:19:47.114Z,4.20
2019-05-02T17:22:25.038Z,4.77
2019-05-02T17:25:02.455Z,5.00
2019-05-02T17:27:36.078Z,5.33
2019-05-02T17:30:12.030Z,4.83
2019-05-02T17:32:47.431Z,4.47
2019-05-02T17:35:22.864Z,4.43
2019-05-02T17:37:58.135Z,4.43
2019-05-02T17:40:33.328Z,4.17
2019-05-02T17:43:08.549Z,4.90
2019-05-02T17:45:43.805Z,4.70
2019-05-02T17:48:19.034Z,5.13
2019-05-02T17:51:04.521Z,3.80
2019-05-02T17:53:45.520Z,4.07
2019-05-02T17:56:20.595Z,6.57
2019-05-02T17:58:57.861Z,4.07
2019-05-02T18:01:35.277Z,4.63
2019-05-02T18:04:12.560Z,4.00
2019-05-02T18:06:53.668Z,4.23
2019-05-02T18:09:26.367Z,5.10
2019-05-02T18:12:01.600Z,4.30
2019-05-02T18:14:36.963Z,4.33
2019-05-02T18:17:12.717Z,4.33
2019-05-02T18:19:48.063Z,5.37
2019-05-02T18:22:26.247Z,4.23
2019-05-02T18:25:01.825Z,4.73
2019-05-02T18:27:37.417Z,4.90
2019-05-02T18:30:22.861Z,4.53
2019-05-02T18:32:57.777Z,4.27
2019-05-02T18:35:37.479Z,6.47
2019-05-02T18:38:10.672Z,4.97
2019-05-02T18:40:45.813Z,4.53
2019-05-02T18:43:22.264Z,4.20
2019-05-02T18:45:58.036Z,6.03
2019-05-02T18:48:36.627Z,4.07
2019-05-02T18:51:17.104Z,6.20
2019-05-02T18:53:48.661Z,5.03
2019-05-02T18:56:23.831Z,4.43
2019-05-02T18:58:59.096Z,4.40
2019-05-02T19:01:34.320Z,5.70
2019-05-02T19:04:09.809Z,4.27
2019-05-02T19:06:45.097Z,4.23
2019-05-02T19:09:25.009Z,4.47
2019-05-02T19:12:05.301Z,3.97
2019-05-02T19:14:34.201Z,4.50
2019-05-02T19:17:09.340Z,4.77
2019-05-02T19:19:44.517Z,5.93
2019-05-02T19:22:19.663Z,4.40
2019-05-02T19:24:54.904Z,7.40
2019-05-02T19:27:59.345Z,4.70
2019-05-02T19:30:35.564Z,5.20
2019-05-02T19:33:12.136Z,4.90
2019-05-02T19:35:50.084Z,4.33
2019-05-02T19:38:26.263Z,4.57
2019-05-02T19:41:05.619Z,4.30
2019-05-02T19:43:40.203Z,4.60
2019-05-02T19:46:16.984Z,4.73
2019-05-02T19:48:52.288Z,4.43
2019-05-02T19:51:28.236Z,4.77
2019-05-02T19:54:06.718Z,4.40
2019-05-02T19:56:46.218Z,4.23
2019-05-02T19:59:24.487Z,5.57
2019-05-02T20:01:56.930Z,4.77
2019-05-02T20:04:32.767Z,6.90
2019-05-02T20:07:08.221Z,4.13
2019-05-02T20:09:47.087Z,4.67
2019-05-02T20:12:22.005Z,4.60
2019-05-02T20:14:57.361Z,4.73
2019-05-02T20:17:32.641Z,4.67
2019-05-02T20:20:12.493Z,5.40
2019-05-02T20:22:47.756Z,5.27
2019-05-02T20:25:23.297Z,4.83
2019-05-02T20:27:58.534Z,5.23
2019-05-02T20:30:33.845Z,5.73
2019-05-02T20:33:09.020Z,5.53
2019-05-02T20:35:44.237Z,5.73
2019-05-02T20:38:21.736Z,5.37
2019-05-02T20:40:56.498Z,5.60
2019-05-02T20:43:32.351Z,5.20
2019-05-02T20:46:07.671Z,4.73
2019-05-02T20:48:42.833Z,5.20
2019-05-02T20:51:17.994Z,4.70
2019-05-02T20:53:53.357Z,5.17
2019-05-02T20:56:28.663Z,4.63
2019-05-02T20:59:03.896Z,4.90
2019-05-02T21:01:39.398Z,5.07
2019-05-02T21:04:14.721Z,5.10
2019-05-02T21:06:55.933Z,5.10
2019-05-02T21:09:56.085Z,4.60
2019-05-02T21:12:31.284Z,4.80
2019-05-02T21:15:06.950Z,5.33
2019-05-02T21:17:42.299Z,5.00
2019-05-02T21:20:17.936Z,5.63
2019-05-02T21:22:53.350Z,5.57
2019-05-02T21:25:29.048Z,5.87
2019-05-02T21:28:04.846Z,5.20
2019-05-02T21:30:41.634Z,5.10
2019-05-02T21:33:36.869Z,5.57
2019-05-02T21:36:12.210Z,4.47
2019-05-02T21:38:47.530Z,5.10
2019-05-02T21:41:23.067Z,5.37
2019-05-02T21:43:58.426Z,5.37
2019-05-02T21:46:33.685Z,5.57
2019-05-02T21:49:09.252Z,5.57
2019-05-02T21:51:51.669Z,5.90
2019-05-02T21:54:38.890Z,5.53
2019-05-02T21:57:16.850Z,6.13
2019-05-02T21:59:52.714Z,6.03
2019-05-02T22:02:28.457Z,5.93
2019-05-02T22:05:03.881Z,6.07
2019-05-02T22:07:41.702Z,7.30
2019-05-02T22:10:16.944Z,5.93
2019-05-02T22:12:52.283Z,6.63
2019-05-02T22:15:27.858Z,6.37
2019-05-02T22:18:03.214Z,6.53
2019-05-02T22:20:38.427Z,6.07
2019-05-02T22:23:13.586Z,6.30
2019-05-02T22:25:48.801Z,7.03
2019-05-02T22:28:24.328Z,5.97
2019-05-02T22:30:59.616Z,6.53
2019-05-02T22:33:34.786Z,7.57
2019-05-02T22:36:12.268Z,7.27
2019-05-02T22:39:06.196Z,8.73
2019-05-02T22:41:42.023Z,8.47
2019-05-02T22:44:17.352Z,9.47
2019-05-02T22:46:52.566Z,8.07
2019-05-02T22:49:27.837Z,9.07
2019-05-02T22:52:03.212Z,9.27
2019-05-02T22:54:38.396Z,8.80
2019-05-02T22:57:14.239Z,8.13
2019-05-02T22:59:51.622Z,8.90
2019-05-02T23:02:26.922Z,9.03
2019-05-02T23:05:02.173Z,9.53
2019-05-02T23:07:37.398Z,12.47
2019-05-02T23:10:12.766Z,10.27
2019-05-02T23:12:48.043Z,10.30
2019-05-02T23:15:23.295Z,10.00
2019-05-02T23:17:58.492Z,9.67
2019-05-02T23:20:33.996Z,9.93
2019-05-02T23:23:09.197Z,9.03
2019-05-02T23:26:01.654Z,9.13
2019-05-02T23:28:38.303Z,8.47
2019-05-02T23:31:14.064Z,9.17
2019-05-02T23:33:58.611Z,8.17
2019-05-02T23:36:34.073Z,7.90
2019-05-02T23:39:12.478Z,7.17
2019-05-02T23:41:47.872Z,6.80
2019-05-02T23:44:23.072Z,5.33
2019-05-02T23:46:58.324Z,5.93
2019-05-02T23:49:33.943Z,3.53
2019-05-02T23:52:09.199Z,3.57
2019-05-02T23:54:51.743Z,3.40
2019-05-02T23:57:22.995Z,3.47
2019-05-02T23:59:59.024Z,3.50
